Time;durP1;ratioP1;P1;durP2;ratioP2;P2;SDS_P1;SDS_P2;PMS_P1;PMS_P2;Temp;Humidity;BMP_temperature;BMP_pressure;BME280_temperature;BME280_humidity;BME280_pressure;Samples;Min_cycle;Max_cycle;Signal;HPM_P1;HPM_P2
2022/03/20 00:00:03;;;;;;;;;;;;;;;;;;1039765;28;799;-42
2022/03/20 00:00:43;;;;;;;;;;;;;;;;;;1040338;28;735;-40
2022/03/20 00:01:13;;;;;;;;;;;;;;;;;;1040313;28;880;-40
2022/03/20 00:01:44;;;;;;;;;;;;;;;;;;1040218;28;894;-40
2022/03/20 00:02:14;;;;;;;;;;;;;;;;;;1040310;28;807;-40
2022/03/20 00:02:45;;;;;;;;;;;;;;;;;;1040285;28;887;-40
2022/03/20 00:03:16;;;;;;;;;;;;;;;;;;1040324;28;791;-40
2022/03/20 00:03:46;;;;;;;;;;;;;;;;;;1040287;28;910;-39
2022/03/20 00:04:16;;;;;;;;;;;;;;;;;;1040041;28;826;-41
2022/03/20 00:04:47;;;;;;;;;;;;;;;;;;1040138;28;807;-41
2022/03/20 00:05:17;;;;;;;;;;;;;;;;;;1040142;28;897;-41
2022/03/20 00:05:48;;;;;;;;;;;;;;;;;;1040243;28;906;-41
2022/03/20 00:06:19;;;;;;;;;;;;;;;;;;1040391;28;1155;-41
2022/03/20 00:06:49;;;;;;;;;;;;;;;;;;1040253;28;1630;-40
2022/03/20 00:07:19;;;;;;;;;;;;;;;;;;1040094;28;878;-41
2022/03/20 00:07:51;;;;;;;;;;;;;;;;;;1039837;28;1531;-41
2022/03/20 00:08:21;;;;;;;;;;;;;;;;;;1040277;28;851;-42
2022/03/20 00:08:54;;;;;;;;;;;;;;;;;;1040401;28;798;-42
2022/03/20 00:09:24;;;;;;;;;;;;;;;;;;1040220;28;1887;-41
2022/03/20 00:09:54;;;;;;;;;;;;;;;;;;1040204;28;989;-41
2022/03/20 00:10:25;;;;;;;;;;;;;;;;;;1040210;28;1696;-41
2022/03/20 00:10:59;;;;;;;;;;;;;;;;;;1040200;28;870;-39
2022/03/20 00:11:30;;;;;;;;;;;;;;;;;;1040134;28;1001;-41
2022/03/20 00:12:00;;;;;;;;;;;;;;;;;;1039938;28;960;-40
2022/03/20 00:12:31;;;;;;;;;;;;;;;;;;1040147;28;866;-40
2022/03/20 00:13:04;;;;;;;;;;;;;;;;;;1040278;28;998;-40
2022/03/20 00:13:35;;;;;;;;;;;;;;;;;;1039659;28;1329;-39
2022/03/20 00:14:05;;;;;;;;;;;;;;;;;;1040375;28;910;-39
2022/03/20 00:14:36;;;;;;;;;;;;;;;;;;1044389;28;889;-41
2022/03/20 00:15:06;;;;;;;;;;;;;;;;;;1044093;28;866;-41
2022/03/20 00:15:41;;;;;;;;;;;;;;;;;;1044468;28;791;-42
2022/03/20 00:16:13;;;;;;;;;;;;;;;;;;1043912;28;924;-38
2022/03/20 00:16:43;;;;;;;;;;;;;;;;;;1044476;28;885;-40
2022/03/20 00:17:14;;;;;;;;;;;;;;;;;;1044209;28;862;-41
2022/03/20 00:17:44;;;;;;;;;;;;;;;;;;1044426;28;882;-39
2022/03/20 00:18:15;;;;;;;;;;;;;;;;;;1044254;28;949;-40
2022/03/20 00:18:46;;;;;;;;;;;;;;;;;;1044361;28;885;-41
2022/03/20 00:19:16;;;;;;;;;;;;;;;;;;1044273;28;938;-40
2022/03/20 00:19:47;;;;;;;;;;;;;;;;;;1044352;28;807;-40
2022/03/20 00:20:17;;;;;;;;;;;;;;;;;;1044193;28;862;-40
2022/03/20 00:20:49;;;;;;;;;;;;;;;;;;1044485;28;919;-40
2022/03/20 00:21:19;;;;;;;;;;;;;;;;;;1044130;28;945;-41
2022/03/20 00:21:49;;;;;;;;;;;;;;;;;;1044419;28;869;-41
2022/03/20 00:22:20;;;;;;;;;;;;;;;;;;1043884;28;842;-41
2022/03/20 00:22:50;;;;;;;;;;;;;;;;;;1044405;28;869;-41
2022/03/20 00:23:23;;;;;;;;;;;;;;;;;;1044362;28;858;-41
2022/03/20 00:23:53;;;;;;;;;;;;;;;;;;1044329;28;942;-41
2022/03/20 00:24:24;;;;;;;;;;;;;;;;;;1044388;28;918;-42
2022/03/20 00:24:54;;;;;;;;;;;;;;;;;;1044343;28;942;-41
2022/03/20 00:25:25;;;;;;;;;;;;;;;;;;1041160;28;1204;-41
2022/03/20 00:25:56;;;;;;;;;;;;;;;;;;1040176;28;980;-41
2022/03/20 00:26:26;;;;;;;;;;;;;;;;;;1037040;28;1058;-41
2022/03/20 00:26:57;;;;;;;;;;;;;;;;;;1037877;28;1108;-41
2022/03/20 00:27:27;;;;;;;;;;;;;;;;;;1036227;28;946;-41
2022/03/20 00:27:58;;;;;;;;;;;;;;;;;;1038366;28;1261;-42
2022/03/20 00:28:29;;;;;;;;;;;;;;;;;;1037785;28;1193;-42
2022/03/20 00:28:59;;;;;;;;;;;;;;;;;;1039565;28;1184;-42
2022/03/20 00:29:30;;;;;;;;;;;;;;;;;;1037162;28;1981;-41
2022/03/20 00:30:02;;;;;;;;;;;;;;;;;;1038126;28;1157;-43
2022/03/20 00:30:32;;;;;;;;;;;;;;;;;;1038101;28;1050;-40
2022/03/20 00:31:03;;;;;;;;;;;;;;;;;;1037265;28;1134;-41
2022/03/20 00:31:34;;;;;;;;;;;;;;;;;;1037316;28;1177;-40
2022/03/20 00:32:05;;;;;;;;;;;;;;;;;;1038519;28;1153;-41
2022/03/20 00:32:36;;;;;;;;;;;;;;;;;;1038668;28;1236;-40
2022/03/20 00:33:06;;;;;;;;;;;;;;;;;;1037887;28;1007;-41
2022/03/20 00:33:37;;;;;;;;;;;;;;;;;;1037370;28;1165;-41
2022/03/20 00:34:07;;;;;;;;;;;;;;;;;;1038238;28;1200;-41
2022/03/20 00:34:38;;;;;;;;;;;;;;;;;;1038525;28;1065;-41
2022/03/20 00:35:09;;;;;;;;;;;;;;;;;;1038204;28;1133;-41
2022/03/20 00:35:39;;;;;;;;;;;;;;;;;;1037198;28;1236;-41
2022/03/20 00:36:09;;;;;;;;;;;;;;;;;;1037981;28;1244;-41
2022/03/20 00:36:40;;;;;;;;;;;;;;;;;;1038666;28;1157;-41
2022/03/20 00:37:10;;;;;;;;;;;;;;;;;;1038032;28;1189;-41
2022/03/20 00:37:40;;;;;;;;;;;;;;;;;;1037328;28;1185;-41
2022/03/20 00:38:11;;;;;;;;;;;;;;;;;;1039480;28;1137;-41
2022/03/20 00:38:41;;;;;;;;;;;;;;;;;;1038985;28;1078;-41
2022/03/20 00:39:11;;;;;;;;;;;;;;;;;;1039878;28;1094;-41
2022/03/20 00:39:42;;;;;;;;;;;;;;;;;;1039764;28;1220;-41
2022/03/20 00:40:12;;;;;;;;;;;;;;;;;;1039962;28;1274;-41
2022/03/20 00:40:43;;;;;;;;;;;;;;;;;;1040161;28;1232;-42
2022/03/20 00:41:14;;;;;;;;;;;;;;;;;;1040030;28;1098;-41
2022/03/20 00:41:44;;;;;;;;;;;;;;;;;;1039953;28;943;-41
2022/03/20 00:42:15;;;;;;;;;;;;;;;;;;1039754;28;1141;-41
2022/03/20 00:42:45;;;;;;;;;;;;;;;;;;1037709;28;1157;-41
2022/03/20 00:43:16;;;;;;;;;;;;;;;;;;1037356;28;1256;-40
2022/03/20 00:43:46;;;;;;;;;;;;;;;;;;1038142;28;1086;-41
2022/03/20 00:44:16;;;;;;;;;;;;;;;;;;1038748;28;1236;-40
2022/03/20 00:44:46;;;;;;;;;;;;;;;;;;1037612;28;1098;-40
2022/03/20 00:45:17;;;;;;;;;;;;;;;;;;1037259;28;1110;-41
2022/03/20 00:45:47;;;;;;;;;;;;;;;;;;1038096;28;1102;-41
2022/03/20 00:46:17;;;;;;;;;;;;;;;;;;1038529;28;1165;-40
2022/03/20 00:46:48;;;;;;;;;;;;;;;;;;1038212;28;1106;-41
2022/03/20 00:47:19;;;;;;;;;;;;;;;;;;1037334;28;1177;-41
2022/03/20 00:47:50;;;;;;;;;;;;;;;;;;1040749;28;1285;-41
2022/03/20 00:48:20;;;;;;;;;;;;;;;;;;1046535;28;981;-41
2022/03/20 00:48:51;;;;;;;;;;;;;;;;;;1044735;28;890;-41
2022/03/20 00:49:21;;;;;;;;;;;;;;;;;;1048342;28;1914;-41
2022/03/20 00:49:51;;;;;;;;;;;;;;;;;;1048364;28;924;-41
2022/03/20 00:50:22;;;;;;;;;;;;;;;;;;1044159;28;886;-41
2022/03/20 00:50:52;;;;;;;;;;;;;;;;;;1044367;28;945;-41
2022/03/20 00:51:23;;;;;;;;;;;;;;;;;;1044257;28;799;-41
2022/03/20 00:51:53;;;;;;;;;;;;;;;;;;1043886;28;957;-41
2022/03/20 00:52:23;;;;;;;;;;;;;;;;;;1044294;28;934;-41
2022/03/20 00:52:54;;;;;;;;;;;;;;;;;;1044132;28;921;-41
2022/03/20 00:53:25;;;;;;;;;;;;;;;;;;1044358;28;889;-42
2022/03/20 00:53:55;;;;;;;;;;;;;;;;;;1044194;28;822;-41
2022/03/20 00:54:25;;;;;;;;;;;;;;;;;;1044264;28;783;-41
2022/03/20 00:54:56;;;;;;;;;;;;;;;;;;1044249;28;878;-41
2022/03/20 00:55:26;;;;;;;;;;;;;;;;;;1044241;28;964;-41
2022/03/20 00:55:57;;;;;;;;;;;;;;;;;;1044163;28;854;-41
2022/03/20 00:56:27;;;;;;;;;;;;;;;;;;1044330;28;910;-41
2022/03/20 00:56:58;;;;;;;;;;;;;;;;;;1039590;28;1400;-41
2022/03/20 00:57:28;;;;;;;;;;;;;;;;;;1039945;28;914;-41
2022/03/20 00:57:58;;;;;;;;;;;;;;;;;;1039638;28;858;-40
2022/03/20 00:58:29;;;;;;;;;;;;;;;;;;1039877;28;874;-41
2022/03/20 00:58:59;;;;;;;;;;;;;;;;;;1044326;28;885;-41
2022/03/20 00:59:29;;;;;;;;;;;;;;;;;;1043906;28;949;-40
2022/03/20 01:00:00;;;;;;;;;;;;;;;;;;1044217;28;937;-42
2022/03/20 01:00:32;;;;;;;;;;;;;;;;;;1044307;28;814;-41
2022/03/20 01:01:04;;;;;;;;;;;;;;;;;;1044135;28;922;-41
2022/03/20 01:01:34;;;;;;;;;;;;;;;;;;1044239;28;1624;-41
2022/03/20 01:02:05;;;;;;;;;;;;;;;;;;1044203;28;846;-41
2022/03/20 01:02:36;;;;;;;;;;;;;;;;;;1044307;28;827;-41
2022/03/20 01:03:06;;;;;;;;;;;;;;;;;;1044248;28;842;-41
2022/03/20 01:03:38;;;;;;;;;;;;;;;;;;1044262;28;811;-41
2022/03/20 01:04:08;;;;;;;;;;;;;;;;;;1043768;28;1433;-41
2022/03/20 01:04:39;;;;;;;;;;;;;;;;;;1043807;28;1302;-40
2022/03/20 01:05:10;;;;;;;;;;;;;;;;;;1043877;28;1627;-41
2022/03/20 01:05:40;;;;;;;;;;;;;;;;;;1044075;28;1046;-41
2022/03/20 01:06:11;;;;;;;;;;;;;;;;;;1039158;28;1113;-39
2022/03/20 01:06:41;;;;;;;;;;;;;;;;;;1039473;28;1011;-41
2022/03/20 01:07:12;;;;;;;;;;;;;;;;;;1042109;28;1382;-41
2022/03/20 01:07:43;;;;;;;;;;;;;;;;;;1043934;28;1078;-41
2022/03/20 01:08:14;;;;;;;;;;;;;;;;;;1044054;28;990;-41
2022/03/20 01:08:44;;;;;;;;;;;;;;;;;;1043999;28;1159;-41
2022/03/20 01:09:14;;;;;;;;;;;;;;;;;;1043878;28;1914;-41
2022/03/20 01:09:45;;;;;;;;;;;;;;;;;;1044132;28;1409;-41
2022/03/20 01:10:15;;;;;;;;;;;;;;;;;;1043805;28;1062;-42
2022/03/20 01:10:45;;;;;;;;;;;;;;;;;;1044354;28;802;-41
2022/03/20 01:11:16;;;;;;;;;;;;;;;;;;1044084;28;925;-41
2022/03/20 01:11:46;;;;;;;;;;;;;;;;;;1044198;28;1602;-42
2022/03/20 01:12:17;;;;;;;;;;;;;;;;;;1044122;28;861;-41
2022/03/20 01:12:47;;;;;;;;;;;;;;;;;;1044168;28;994;-41
2022/03/20 01:13:18;;;;;;;;;;;;;;;;;;1044098;28;838;-41
2022/03/20 01:13:49;;;;;;;;;;;;;;;;;;1044268;28;1249;-41
2022/03/20 01:14:19;;;;;;;;;;;;;;;;;;1043717;28;902;-41
2022/03/20 01:14:49;;;;;;;;;;;;;;;;;;1044382;28;787;-42
2022/03/20 01:15:20;;;;;;;;;;;;;;;;;;1043935;28;843;-42
2022/03/20 01:15:50;;;;;;;;;;;;;;;;;;1044179;28;1533;-41
2022/03/20 01:16:20;;;;;;;;;;;;;;;;;;1044083;28;882;-41
2022/03/20 01:16:54;;;;;;;;;;;;;;;;;;1044216;28;859;-41
2022/03/20 01:17:25;;;;;;;;;;;;;;;;;;1044115;28;941;-40
2022/03/20 01:17:56;;;;;;;;;;;;;;;;;;1043934;28;894;-41
2022/03/20 01:18:26;;;;;;;;;;;;;;;;;;1044129;28;946;-41
2022/03/20 01:18:56;;;;;;;;;;;;;;;;;;1044278;28;842;-41
2022/03/20 01:19:27;;;;;;;;;;;;;;;;;;1043980;28;803;-41
2022/03/20 01:19:57;;;;;;;;;;;;;;;;;;1044161;28;942;-42
2022/03/20 01:20:27;;;;;;;;;;;;;;;;;;1044018;28;1040;-43
2022/03/20 01:20:58;;;;;;;;;;;;;;;;;;1044253;28;890;-41
2022/03/20 01:21:30;;;;;;;;;;;;;;;;;;1043802;28;882;-41
2022/03/20 01:22:00;;;;;;;;;;;;;;;;;;1044131;28;882;-41
2022/03/20 01:22:31;;;;;;;;;;;;;;;;;;1039496;28;1076;-41
2022/03/20 01:23:02;;;;;;;;;;;;;;;;;;1039733;28;794;-41
2022/03/20 01:23:32;;;;;;;;;;;;;;;;;;1039584;28;851;-41
2022/03/20 01:24:03;;;;;;;;;;;;;;;;;;1040008;28;811;-42
2022/03/20 01:24:33;;;;;;;;;;;;;;;;;;1044003;28;834;-41
2022/03/20 01:25:04;;;;;;;;;;;;;;;;;;1044022;28;1203;-41
2022/03/20 01:25:35;;;;;;;;;;;;;;;;;;1039794;28;839;-41
2022/03/20 01:26:05;;;;;;;;;;;;;;;;;;1040108;28;851;-41
2022/03/20 01:26:36;;;;;;;;;;;;;;;;;;1039991;28;881;-42
2022/03/20 01:27:07;;;;;;;;;;;;;;;;;;1040116;28;937;-41
2022/03/20 01:27:37;;;;;;;;;;;;;;;;;;1039893;28;1020;-41
2022/03/20 01:28:08;;;;;;;;;;;;;;;;;;1040068;28;903;-41
2022/03/20 01:28:38;;;;;;;;;;;;;;;;;;1039860;28;850;-40
2022/03/20 01:29:08;;;;;;;;;;;;;;;;;;1039778;28;1965;-41
2022/03/20 01:29:39;;;;;;;;;;;;;;;;;;1039821;28;875;-41
2022/03/20 01:30:10;;;;;;;;;;;;;;;;;;1040217;28;973;-41
2022/03/20 01:30:40;;;;;;;;;;;;;;;;;;1039924;28;926;-41
2022/03/20 01:31:10;;;;;;;;;;;;;;;;;;1040073;28;1016;-42
2022/03/20 01:31:41;;;;;;;;;;;;;;;;;;1039886;28;942;-41
2022/03/20 01:32:11;;;;;;;;;;;;;;;;;;1040136;28;942;-41
2022/03/20 01:32:41;;;;;;;;;;;;;;;;;;1039810;28;915;-41
2022/03/20 01:33:12;;;;;;;;;;;;;;;;;;1040192;28;788;-41
2022/03/20 01:33:42;;;;;;;;;;;;;;;;;;1039787;28;929;-41
2022/03/20 01:34:13;;;;;;;;;;;;;;;;;;1040038;28;1061;-41
2022/03/20 01:34:44;;;;;;;;;;;;;;;;;;1039901;28;869;-41
2022/03/20 01:35:14;;;;;;;;;;;;;;;;;;1039921;28;938;-42
2022/03/20 01:35:45;;;;;;;;;;;;;;;;;;1039979;28;897;-41
2022/03/20 01:36:15;;;;;;;;;;;;;;;;;;1039611;28;910;-41
2022/03/20 01:36:45;;;;;;;;;;;;;;;;;;1039980;28;929;-41
2022/03/20 01:37:16;;;;;;;;;;;;;;;;;;1040045;28;815;-40
2022/03/20 01:37:46;;;;;;;;;;;;;;;;;;1039741;28;898;-43
2022/03/20 01:38:20;;;;;;;;;;;;;;;;;;1039961;28;914;-41
2022/03/20 01:38:50;;;;;;;;;;;;;;;;;;1039989;28;973;-41
2022/03/20 01:39:20;;;;;;;;;;;;;;;;;;1039942;28;807;-41
2022/03/20 01:39:52;;;;;;;;;;;;;;;;;;1039940;28;1076;-41
2022/03/20 01:40:23;;;;;;;;;;;;;;;;;;1039785;28;784;-41
2022/03/20 01:40:54;;;;;;;;;;;;;;;;;;1040065;28;950;-40
2022/03/20 01:41:24;;;;;;;;;;;;;;;;;;1040085;28;958;-41
2022/03/20 01:41:55;;;;;;;;;;;;;;;;;;1039952;28;952;-41
2022/03/20 01:42:26;;;;;;;;;;;;;;;;;;1039924;28;760;-41
2022/03/20 01:42:56;;;;;;;;;;;;;;;;;;1039926;28;835;-41
2022/03/20 01:43:27;;;;;;;;;;;;;;;;;;1039971;28;906;-41
2022/03/20 01:43:59;;;;;;;;;;;;;;;;;;1039674;28;954;-41
2022/03/20 01:44:30;;;;;;;;;;;;;;;;;;1039846;28;926;-41
2022/03/20 01:45:10;;;;;;;;;;;;;;;;;;1039985;28;898;-40
2022/03/20 01:45:40;;;;;;;;;;;;;;;;;;1039766;28;905;-41
2022/03/20 01:46:10;;;;;;;;;;;;;;;;;;1040104;28;941;-41
2022/03/20 01:46:41;;;;;;;;;;;;;;;;;;1039874;28;819;-40
2022/03/20 01:47:11;;;;;;;;;;;;;;;;;;1040020;28;890;-40
2022/03/20 01:47:41;;;;;;;;;;;;;;;;;;1039739;28;1206;-40
2022/03/20 01:48:12;;;;;;;;;;;;;;;;;;1039709;28;1026;-40
2022/03/20 01:48:42;;;;;;;;;;;;;;;;;;1039780;28;937;-41
2022/03/20 01:49:12;;;;;;;;;;;;;;;;;;1040045;28;1914;-41
2022/03/20 01:49:43;;;;;;;;;;;;;;;;;;1039719;28;1110;-41
2022/03/20 01:50:14;;;;;;;;;;;;;;;;;;1040011;28;921;-40
2022/03/20 01:50:44;;;;;;;;;;;;;;;;;;1039852;28;973;-41
2022/03/20 01:51:15;;;;;;;;;;;;;;;;;;1039625;28;871;-41
2022/03/20 01:52:35;;;;;;;;;;;;;;;;;;1039849;28;914;-41
2022/03/20 01:53:06;;;;;;;;;;;;;;;;;;1040016;28;802;-41
2022/03/20 01:53:36;;;;;;;;;;;;;;;;;;1039757;28;842;-41
2022/03/20 01:54:07;;;;;;;;;;;;;;;;;;1040011;28;886;-42
2022/03/20 01:54:38;;;;;;;;;;;;;;;;;;1039910;28;1645;-42
2022/03/20 01:55:08;;;;;;;;;;;;;;;;;;1039873;28;946;-42
2022/03/20 01:55:39;;;;;;;;;;;;;;;;;;1039962;28;791;-42
2022/03/20 01:56:09;;;;;;;;;;;;;;;;;;1039974;28;956;-41
2022/03/20 01:56:45;;;;;;;;;;;;;;;;;;1039972;28;944;-42
2022/03/20 01:57:17;;;;;;;;;;;;;;;;;;1039827;28;986;-42
2022/03/20 01:57:47;;;;;;;;;;;;;;;;;;1039729;28;810;-41
2022/03/20 01:58:18;;;;;;;;;;;;;;;;;;1039952;28;902;-42
2022/03/20 01:58:49;;;;;;;;;;;;;;;;;;1039486;28;929;-41
2022/03/20 01:59:19;;;;;;;;;;;;;;;;;;1039811;28;921;-42
2022/03/20 01:59:50;;;;;;;;;;;;;;;;;;1039970;28;1008;-41
2022/03/20 02:00:21;;;;;;;;;;;;;;;;;;1039799;28;857;-40
2022/03/20 02:00:52;;;;;;;;;;;;;;;;;;1035428;28;859;-41
2022/03/20 02:01:22;;;;;;;;;;;;;;;;;;1035451;28;827;-42
2022/03/20 02:01:53;;;;;;;;;;;;;;;;;;1035544;28;660;-41
2022/03/20 02:02:23;;;;;;;;;;;;;;;;;;1035610;28;882;-41
2022/03/20 02:02:54;;;;;;;;;;;;;;;;;;1039267;28;902;-41
2022/03/20 02:03:24;;;;;;;;;;;;;;;;;;1039592;28;818;-40
2022/03/20 02:03:55;;;;;;;;;;;;;;;;;;1039439;28;976;-41
2022/03/20 02:04:25;;;;;;;;;;;;;;;;;;1039640;28;937;-41
2022/03/20 02:04:56;;;;;;;;;;;;;;;;;;1039921;28;889;-41
2022/03/20 02:05:26;;;;;;;;;;;;;;;;;;1039303;28;1370;-41
2022/03/20 02:05:57;;;;;;;;;;;;;;;;;;1039211;28;985;-41
2022/03/20 02:06:27;;;;;;;;;;;;;;;;;;1039610;28;862;-40
2022/03/20 02:06:59;;;;;;;;;;;;;;;;;;1039554;28;902;-41
2022/03/20 02:07:29;;;;;;;;;;;;;;;;;;1039911;28;810;-41
2022/03/20 02:08:00;;;;;;;;;;;;;;;;;;1039693;28;850;-41
2022/03/20 02:08:33;;;;;;;;;;;;;;;;;;1039853;28;934;-41
2022/03/20 02:09:04;;;;;;;;;;;;;;;;;;1039817;28;1197;-41
2022/03/20 02:09:35;;;;;;;;;;;;;;;;;;1039688;28;1949;-41
2022/03/20 02:10:07;;;;;;;;;;;;;;;;;;1039926;28;1253;-41
2022/03/20 02:10:40;;;;;;;;;;;;;;;;;;1035446;28;922;-41
2022/03/20 02:11:10;;;;;;;;;;;;;;;;;;1035302;28;1400;-41
2022/03/20 02:11:42;;;;;;;;;;;;;;;;;;1035533;28;806;-41
2022/03/20 02:12:12;;;;;;;;;;;;;;;;;;1035684;28;853;-40
2022/03/20 02:12:43;;;;;;;;;;;;;;;;;;1040039;28;934;-41
2022/03/20 02:13:14;;;;;;;;;;;;;;;;;;1039336;28;1102;-42
2022/03/20 02:13:44;;;;;;;;;;;;;;;;;;1039769;28;1288;-42
2022/03/20 02:14:14;;;;;;;;;;;;;;;;;;1041201;28;879;-40
2022/03/20 02:14:45;;;;;;;;;;;;;;;;;;1043967;28;910;-42
2022/03/20 02:15:15;;;;;;;;;;;;;;;;;;1043826;28;890;-41
2022/03/20 02:15:46;;;;;;;;;;;;;;;;;;1043970;28;950;-42
2022/03/20 02:16:16;;;;;;;;;;;;;;;;;;1043878;28;930;-41
2022/03/20 02:16:47;;;;;;;;;;;;;;;;;;1043945;28;941;-41
2022/03/20 02:17:18;;;;;;;;;;;;;;;;;;1043865;28;905;-41
2022/03/20 02:17:48;;;;;;;;;;;;;;;;;;1043186;28;965;-42
2022/03/20 02:18:19;;;;;;;;;;;;;;;;;;1043643;28;806;-41
2022/03/20 02:18:50;;;;;;;;;;;;;;;;;;1043951;28;775;-41
2022/03/20 02:19:20;;;;;;;;;;;;;;;;;;1043987;28;806;-41
2022/03/20 02:19:50;;;;;;;;;;;;;;;;;;1043843;28;910;-41
2022/03/20 02:20:22;;;;;;;;;;;;;;;;;;1043875;28;1651;-41
2022/03/20 02:20:53;;;;;;;;;;;;;;;;;;1043640;28;873;-41
2022/03/20 02:21:36;;;;;;;;;;;;;;;;;;1043881;28;782;-40
2022/03/20 02:22:07;;;;;;;;;;;;;;;;;;1043901;28;791;-42
2022/03/20 02:22:38;;;;;;;;;;;;;;;;;;1043929;28;779;-41
2022/03/20 02:23:08;;;;;;;;;;;;;;;;;;1044066;28;806;-41
2022/03/20 02:23:38;;;;;;;;;;;;;;;;;;1044026;28;902;-40
2022/03/20 02:24:28;;;;;;;;;;;;;;;;;;1043745;28;862;-42
2022/03/20 02:25:04;;;;;;;;;;;;;;;;;;1044080;28;956;-41
2022/03/20 02:25:34;;;;;;;;;;;;;;;;;;1043766;28;893;-41
2022/03/20 02:26:05;;;;;;;;;;;;;;;;;;1044061;28;839;-40
2022/03/20 02:26:35;;;;;;;;;;;;;;;;;;1043755;28;937;-41
2022/03/20 02:27:05;;;;;;;;;;;;;;;;;;1043996;28;945;-41
2022/03/20 02:27:39;;;;;;;;;;;;;;;;;;1044003;28;898;-41
2022/03/20 02:28:09;;;;;;;;;;;;;;;;;;1043262;28;969;-41
2022/03/20 02:28:40;;;;;;;;;;;;;;;;;;1044013;28;889;-41
2022/03/20 02:29:10;;;;;;;;;;;;;;;;;;1043806;28;1921;-41
2022/03/20 02:29:41;;;;;;;;;;;;;;;;;;1043980;28;872;-41
2022/03/20 02:30:13;;;;;;;;;;;;;;;;;;1043904;28;965;-41
2022/03/20 02:30:43;;;;;;;;;;;;;;;;;;1043731;28;946;-40
2022/03/20 02:31:14;;;;;;;;;;;;;;;;;;1043975;28;903;-40
2022/03/20 02:31:44;;;;;;;;;;;;;;;;;;1044009;28;814;-40
2022/03/20 02:32:17;;;;;;;;;;;;;;;;;;1043873;28;771;-40
2022/03/20 02:32:48;;;;;;;;;;;;;;;;;;1043763;28;823;-41
2022/03/20 02:33:22;;;;;;;;;;;;;;;;;;1039350;28;648;-41
2022/03/20 02:33:53;;;;;;;;;;;;;;;;;;1039378;28;961;-41
2022/03/20 02:34:25;;;;;;;;;;;;;;;;;;1039587;28;886;-40
2022/03/20 02:34:57;;;;;;;;;;;;;;;;;;1040024;28;910;-41
2022/03/20 02:35:27;;;;;;;;;;;;;;;;;;1043583;28;933;-41
2022/03/20 02:35:58;;;;;;;;;;;;;;;;;;1043802;28;901;-40
2022/03/20 02:36:28;;;;;;;;;;;;;;;;;;1043958;28;787;-42
2022/03/20 02:37:03;;;;;;;;;;;;;;;;;;1043825;28;899;-41
2022/03/20 02:37:37;;;;;;;;;;;;;;;;;;1043736;28;933;-41
2022/03/20 02:38:13;;;;;;;;;;;;;;;;;;1043758;28;941;-42
2022/03/20 02:38:43;;;;;;;;;;;;;;;;;;1043873;28;994;-40
2022/03/20 02:39:13;;;;;;;;;;;;;;;;;;1043784;28;1017;-42
2022/03/20 02:39:44;;;;;;;;;;;;;;;;;;1043940;28;898;-41
2022/03/20 02:40:15;;;;;;;;;;;;;;;;;;1043777;28;945;-41
2022/03/20 02:40:46;;;;;;;;;;;;;;;;;;1043968;28;783;-41
2022/03/20 02:41:16;;;;;;;;;;;;;;;;;;1043899;28;960;-40
2022/03/20 02:41:47;;;;;;;;;;;;;;;;;;1043709;28;842;-41
2022/03/20 02:42:18;;;;;;;;;;;;;;;;;;1043837;28;966;-42
2022/03/20 02:42:49;;;;;;;;;;;;;;;;;;1043698;28;791;-41
2022/03/20 02:43:19;;;;;;;;;;;;;;;;;;1043735;28;814;-41
2022/03/20 02:43:50;;;;;;;;;;;;;;;;;;1043911;28;846;-41
2022/03/20 02:44:41;;;;;;;;;;;;;;;;;;1044011;28;878;-40
2022/03/20 02:45:13;;;;;;;;;;;;;;;;;;1043647;28;1757;-40
2022/03/20 02:45:43;;;;;;;;;;;;;;;;;;1043858;28;957;-40
2022/03/20 02:46:14;;;;;;;;;;;;;;;;;;1039255;28;859;-40
2022/03/20 02:46:44;;;;;;;;;;;;;;;;;;1039495;28;1092;-39
2022/03/20 02:47:15;;;;;;;;;;;;;;;;;;1039335;28;894;-41
2022/03/20 02:47:46;;;;;;;;;;;;;;;;;;1039257;28;1427;-41
2022/03/20 02:48:16;;;;;;;;;;;;;;;;;;1043844;28;795;-40
2022/03/20 02:48:47;;;;;;;;;;;;;;;;;;1039273;28;867;-42
2022/03/20 02:49:18;;;;;;;;;;;;;;;;;;1039370;28;1981;-40
2022/03/20 02:49:50;;;;;;;;;;;;;;;;;;1039278;28;788;-41
2022/03/20 02:50:22;;;;;;;;;;;;;;;;;;1039386;28;803;-41
2022/03/20 02:50:52;;;;;;;;;;;;;;;;;;1043867;28;886;-41
2022/03/20 02:51:23;;;;;;;;;;;;;;;;;;1039350;28;952;-42
2022/03/20 02:51:58;;;;;;;;;;;;;;;;;;1039351;28;893;-40
2022/03/20 02:52:29;;;;;;;;;;;;;;;;;;1039249;28;1016;-40
2022/03/20 02:53:04;;;;;;;;;;;;;;;;;;1040375;28;953;-40
2022/03/20 02:53:36;;;;;;;;;;;;;;;;;;1043742;28;1005;-41
2022/03/20 02:54:07;;;;;;;;;;;;;;;;;;1043690;28;942;-41
2022/03/20 02:54:37;;;;;;;;;;;;;;;;;;1043970;28;945;-41
2022/03/20 02:55:08;;;;;;;;;;;;;;;;;;1043603;28;775;-40
2022/03/20 02:55:47;;;;;;;;;;;;;;;;;;1043890;28;854;-40
2022/03/20 02:56:18;;;;;;;;;;;;;;;;;;1043795;28;949;-41
2022/03/20 02:56:48;;;;;;;;;;;;;;;;;;1043809;28;909;-41
2022/03/20 02:57:18;;;;;;;;;;;;;;;;;;1043766;28;933;-40
2022/03/20 02:57:49;;;;;;;;;;;;;;;;;;1043219;28;993;-40
2022/03/20 02:58:20;;;;;;;;;;;;;;;;;;1043788;28;820;-40
2022/03/20 02:58:50;;;;;;;;;;;;;;;;;;1043811;28;1012;-40
2022/03/20 02:59:20;;;;;;;;;;;;;;;;;;1043812;28;843;-40
2022/03/20 02:59:51;;;;;;;;;;;;;;;;;;1043834;28;984;-40
2022/03/20 03:00:25;;;;;;;;;;;;;;;;;;1043666;28;862;-41
2022/03/20 03:00:57;;;;;;;;;;;;;;;;;;1043851;28;953;-40
2022/03/20 03:01:27;;;;;;;;;;;;;;;;;;1043760;28;799;-40
2022/03/20 03:01:59;;;;;;;;;;;;;;;;;;1043769;28;969;-40
2022/03/20 03:02:30;;;;;;;;;;;;;;;;;;1043756;28;782;-40
2022/03/20 03:03:01;;;;;;;;;;;;;;;;;;1043833;28;1020;-40
2022/03/20 03:03:31;;;;;;;;;;;;;;;;;;1039241;28;882;-40
2022/03/20 03:04:02;;;;;;;;;;;;;;;;;;1039396;28;927;-41
2022/03/20 03:04:32;;;;;;;;;;;;;;;;;;1039111;28;886;-41
2022/03/20 03:05:03;;;;;;;;;;;;;;;;;;1039185;28;839;-41
2022/03/20 03:05:33;;;;;;;;;;;;;;;;;;1043651;28;997;-41
2022/03/20 03:06:07;;;;;;;;;;;;;;;;;;1043682;28;906;-41
2022/03/20 03:06:37;;;;;;;;;;;;;;;;;;1043931;28;910;-41
2022/03/20 03:07:08;;;;;;;;;;;;;;;;;;1043579;28;787;-41
2022/03/20 03:10:57;;;;;;;;;;;;;;;;;;1043667;28;1640;-41
2022/03/20 03:11:29;;;;;;;;;;;;;;;;;;1043564;28;831;-41
2022/03/20 03:12:00;;;;;;;;;;;;;;;;;;1043886;28;965;-41
2022/03/20 03:12:30;;;;;;;;;;;;;;;;;;1043150;28;870;-40
2022/03/20 03:13:01;;;;;;;;;;;;;;;;;;1043984;28;881;-40
2022/03/20 03:13:38;;;;;;;;;;;;;;;;;;1039754;28;1220;-40
2022/03/20 03:15:48;;;;;;;;;;;;;;;;;;1039679;28;907;-40
2022/03/20 03:16:18;;;;;;;;;;;;;;;;;;1035101;28;709;-40
2022/03/20 03:16:49;;;;;;;;;;;;;;;;;;1035209;28;902;-40
2022/03/20 03:17:27;;;;;;;;;;;;;;;;;;1035276;28;839;-40
2022/03/20 03:17:58;;;;;;;;;;;;;;;;;;1036398;28;795;-41
2022/03/20 03:18:30;;;;;;;;;;;;;;;;;;1039558;28;839;-40
2022/03/20 03:19:01;;;;;;;;;;;;;;;;;;1039622;28;970;-40
2022/03/20 03:19:32;;;;;;;;;;;;;;;;;;1039399;28;1178;-41
2022/03/20 03:20:02;;;;;;;;;;;;;;;;;;1039507;28;902;-41
2022/03/20 03:20:33;;;;;;;;;;;;;;;;;;1039432;28;978;-41
2022/03/20 03:21:03;;;;;;;;;;;;;;;;;;1039681;28;866;-40
2022/03/20 03:21:33;;;;;;;;;;;;;;;;;;1039561;28;890;-41
2022/03/20 03:22:04;;;;;;;;;;;;;;;;;;1039778;28;827;-40
2022/03/20 03:22:34;;;;;;;;;;;;;;;;;;1039496;28;902;-42
2022/03/20 03:23:05;;;;;;;;;;;;;;;;;;1039679;28;903;-41
2022/03/20 03:23:37;;;;;;;;;;;;;;;;;;1039684;28;795;-40
2022/03/20 03:24:08;;;;;;;;;;;;;;;;;;1039646;28;844;-40
2022/03/20 03:24:38;;;;;;;;;;;;;;;;;;1039418;28;887;-41
2022/03/20 03:25:08;;;;;;;;;;;;;;;;;;1040544;28;1200;-42
2022/03/20 03:25:40;;;;;;;;;;;;;;;;;;1043632;28;850;-41
2022/03/20 03:26:10;;;;;;;;;;;;;;;;;;1043806;28;835;-41
2022/03/20 03:26:41;;;;;;;;;;;;;;;;;;1043702;28;1580;-41
2022/03/20 03:27:11;;;;;;;;;;;;;;;;;;1043414;28;914;-41
2022/03/20 03:27:43;;;;;;;;;;;;;;;;;;1043641;28;830;-41
2022/03/20 03:28:14;;;;;;;;;;;;;;;;;;1043736;28;942;-41
2022/03/20 03:28:44;;;;;;;;;;;;;;;;;;1043664;28;834;-41
2022/03/20 03:29:14;;;;;;;;;;;;;;;;;;1043480;28;1977;-42
2022/03/20 03:29:45;;;;;;;;;;;;;;;;;;1043613;28;878;-41
2022/03/20 03:30:16;;;;;;;;;;;;;;;;;;1043865;28;904;-41
2022/03/20 03:30:47;;;;;;;;;;;;;;;;;;1043732;28;945;-41
2022/03/20 03:31:17;;;;;;;;;;;;;;;;;;1043688;28;882;-41
2022/03/20 03:31:48;;;;;;;;;;;;;;;;;;1043555;28;970;-41
2022/03/20 03:32:18;;;;;;;;;;;;;;;;;;1043709;28;973;-41
2022/03/20 03:32:48;;;;;;;;;;;;;;;;;;1043629;28;870;-41
2022/03/20 03:33:19;;;;;;;;;;;;;;;;;;1043822;28;942;-41
2022/03/20 03:35:47;;;;;;;;;;;;;;;;;;1043529;28;815;-42
2022/03/20 03:36:18;;;;;;;;;;;;;;;;;;1043843;28;953;-41
2022/03/20 03:36:49;;;;;;;;;;;;;;;;;;1043622;28;1884;-41
2022/03/20 03:37:20;;;;;;;;;;;;;;;;;;1043779;28;874;-42
2022/03/20 03:37:50;;;;;;;;;;;;;;;;;;1043311;28;937;-42
2022/03/20 03:38:22;;;;;;;;;;;;;;;;;;1043750;28;847;-41
2022/03/20 03:38:52;;;;;;;;;;;;;;;;;;1043619;28;1036;-41
2022/03/20 03:39:23;;;;;;;;;;;;;;;;;;1043787;28;800;-41
2022/03/20 03:39:53;;;;;;;;;;;;;;;;;;1043687;28;891;-41
2022/03/20 03:40:23;;;;;;;;;;;;;;;;;;1043701;28;909;-41
2022/03/20 03:40:57;;;;;;;;;;;;;;;;;;1043669;28;934;-41
2022/03/20 03:41:28;;;;;;;;;;;;;;;;;;1043612;28;910;-41
2022/03/20 03:41:58;;;;;;;;;;;;;;;;;;1043451;28;792;-41
2022/03/20 03:42:29;;;;;;;;;;;;;;;;;;1043563;28;917;-41
2022/03/20 03:43:00;;;;;;;;;;;;;;;;;;1043746;28;977;-41
2022/03/20 03:43:30;;;;;;;;;;;;;;;;;;1043721;28;866;-41
2022/03/20 03:44:01;;;;;;;;;;;;;;;;;;1043677;28;874;-41
2022/03/20 03:44:32;;;;;;;;;;;;;;;;;;1043634;28;787;-41
2022/03/20 03:45:03;;;;;;;;;;;;;;;;;;1043759;28;905;-41
2022/03/20 03:45:34;;;;;;;;;;;;;;;;;;1043544;28;1009;-41